aviador You're here:

LFBM Decoded Metar

MONT-DE-MARSAN in FRANCE
Report Time2018-02-22 08:30:00
UTC Time2018-02-22 08:47:24
Flight Rules ifr IFR
Wind270° at 04 kt
W.Decomp.*RWY 27: 4.0 kt HW 0 kt LCW
W.Rank270° ranks 2
Current wind is below 270° avg. (6.6)
Visibility2300 m
Phenomena:Mist
Clouds:Few 008 Hf
Expected CloudBase > 400 ft AGL from Temp-Dew spread
CeilingNone
Temp-1°C (ISA -16)
Dew Point-2°C (93% RH)
AAT-4.7°C
QNH1014 hPa
Density Alt-1,663 ft
Elevation207 ft
Report Wrong Elevation
Raw Report
LFBM 220830Z AUTO 27004KT 2300 BR FEW008 M01/M02 Q1014 BECMG 9999
NSW=

Extra information for LFBM:More info

Metar Taf Metar & Taf Last 4 Metars F.Rules Stats Wind Profile Meteogram Temp Stats Airport Information Weather charts Add Link Nearby VenuesMetar ALERT Operation Metar Decoded Social comments